Time;durP1;ratioP1;P1;durP2;ratioP2;P2;SDS_P1;SDS_P2;PMS_P1;PMS_P2;Temp;Humidity;BMP_temperature;BMP_pressure;BME280_temperature;BME280_humidity;BME280_pressure;Samples;Min_cycle;Max_cycle;Signal;HPM_P1;HPM_P2
2022/11/26 00:00:37;;;;;;;4.57;2.05;;;;;;;;;;4888713;29;20056;-86
2022/11/26 00:03:02;;;;;;;3.03;1.90;;;;;;;;;;4889045;29;20680;-85
2022/11/26 00:05:30;;;;;;;3.72;2.03;;;;;;;;;;4893656;29;20048;-86
2022/11/26 00:07:58;;;;;;;3.63;1.95;;;;;;;;;;4909633;29;20051;-86
2022/11/26 00:10:28;;;;;;;4.15;2.20;;;;;;;;;;4890241;29;20039;-86
2022/11/26 00:12:55;;;;;;;4.13;2.05;;;;;;;;;;4889107;29;20039;-86
2022/11/26 00:15:29;;;;;;;3.45;2.10;;;;;;;;;;4875124;29;20105;-86
2022/11/26 00:17:55;;;;;;;3.80;2.00;;;;;;;;;;4889751;29;20041;-87
2022/11/26 00:20:28;;;;;;;4.13;1.90;;;;;;;;;;4891701;29;20542;-86
2022/11/26 00:23:03;;;;;;;4.65;1.73;;;;;;;;;;4890058;29;20589;-88
2022/11/26 00:25:41;;;;;;;2.63;1.50;;;;;;;;;;4888644;29;20088;-87
2022/11/26 00:28:37;;;;;;;2.03;1.30;;;;;;;;;;4889081;29;20045;-86
2022/11/26 00:31:13;;;;;;;2.55;1.40;;;;;;;;;;4890186;29;20071;-86
2022/11/26 00:33:38;;;;;;;2.75;1.70;;;;;;;;;;4901423;29;20074;-86
2022/11/26 00:36:16;;;;;;;3.85;1.80;;;;;;;;;;4901558;29;20490;-85
2022/11/26 00:38:42;;;;;;;2.75;1.50;;;;;;;;;;4901407;29;20037;-84
2022/11/26 00:41:15;;;;;;;3.55;1.63;;;;;;;;;;4900956;29;20040;-85
2022/11/26 00:43:41;;;;;;;2.75;1.40;;;;;;;;;;4885007;29;20040;-86
2022/11/26 00:46:12;;;;;;;3.00;1.38;;;;;;;;;;4885964;29;20044;-85
2022/11/26 00:48:37;;;;;;;2.85;1.63;;;;;;;;;;4902911;29;20041;-85
2022/11/26 00:51:03;;;;;;;2.42;1.58;;;;;;;;;;4885590;29;20033;-85
2022/11/26 00:53:28;;;;;;;3.28;1.70;;;;;;;;;;4885149;29;20036;-85
2022/11/26 00:55:54;;;;;;;3.72;1.40;;;;;;;;;;4901526;29;20055;-85
2022/11/26 00:58:20;;;;;;;3.45;1.40;;;;;;;;;;4901030;29;20117;-85
2022/11/26 01:00:45;;;;;;;4.00;1.55;;;;;;;;;;4900835;29;20033;-87
2022/11/26 01:03:10;;;;;;;3.95;1.50;;;;;;;;;;4868401;29;20520;-84
2022/11/26 01:05:36;;;;;;;3.42;1.60;;;;;;;;;;4867975;29;20417;-87
2022/11/26 01:08:19;;;;;;;2.85;1.73;;;;;;;;;;4883467;29;20047;-85
2022/11/26 01:10:45;;;;;;;7.10;1.77;;;;;;;;;;4883681;29;20040;-86
2022/11/26 01:13:10;;;;;;;3.03;1.48;;;;;;;;;;4883579;29;20040;-87
2022/11/26 01:15:36;;;;;;;4.53;1.48;;;;;;;;;;4900143;29;20096;-88
2022/11/26 01:18:12;;;;;;;5.38;1.80;;;;;;;;;;4904943;29;20071;-87
2022/11/26 01:20:37;;;;;;;4.47;1.90;;;;;;;;;;4887415;29;20044;-87
2022/11/26 01:23:03;;;;;;;4.80;1.60;;;;;;;;;;4888592;29;20043;-87
2022/11/26 01:25:28;;;;;;;4.93;1.73;;;;;;;;;;4871965;29;20413;-87
2022/11/26 01:27:54;;;;;;;5.10;1.83;;;;;;;;;;4887897;29;20033;-87
2022/11/26 01:30:22;;;;;;;6.13;1.60;;;;;;;;;;4902925;29;20036;-87
2022/11/26 01:32:48;;;;;;;2.38;1.60;;;;;;;;;;4893111;29;20045;-86
2022/11/26 01:35:16;;;;;;;4.75;1.65;;;;;;;;;;4886841;29;20450;-86
2022/11/26 01:37:42;;;;;;;3.40;1.50;;;;;;;;;;4886581;29;20056;-86
2022/11/26 01:40:22;;;;;;;4.22;1.40;;;;;;;;;;4903089;29;20036;-87
2022/11/26 01:42:57;;;;;;;3.00;1.25;;;;;;;;;;4870402;29;20048;-87
2022/11/26 01:45:23;;;;;;;4.53;1.50;;;;;;;;;;4887333;29;20056;-87
2022/11/26 01:47:48;;;;;;;5.53;1.60;;;;;;;;;;4887474;29;20044;-87
2022/11/26 01:50:32;;;;;;;4.82;1.70;;;;;;;;;;4904352;29;20033;-86
2022/11/26 01:53:04;;;;;;;4.22;2.17;;;;;;;;;;4904137;29;20232;-88
2022/11/26 01:55:37;;;;;;;3.72;1.88;;;;;;;;;;4904096;29;20063;-87
2022/11/26 01:58:06;;;;;;;3.80;1.90;;;;;;;;;;4904250;29;20036;-87
2022/11/26 02:00:32;;;;;;;5.32;2.25;;;;;;;;;;4904346;29;20100;-88
2022/11/26 02:02:58;;;;;;;8.00;1.90;;;;;;;;;;4904650;29;20041;-89
2022/11/26 02:05:28;;;;;;;4.38;1.70;;;;;;;;;;4887410;29;20047;-87
2022/11/26 02:07:55;;;;;;;3.10;1.80;;;;;;;;;;4887644;29;20180;-86
2022/11/26 02:10:21;;;;;;;3.05;1.95;;;;;;;;;;4887262;29;20040;-87
2022/11/26 02:12:47;;;;;;;4.60;1.70;;;;;;;;;;4887181;29;20037;-87
2022/11/26 02:15:13;;;;;;;3.25;1.77;;;;;;;;;;4886642;29;20036;-87
2022/11/26 02:17:59;;;;;;;4.63;2.00;;;;;;;;;;4905835;29;20048;-87
2022/11/26 02:20:31;;;;;;;4.35;2.10;;;;;;;;;;4888241;29;20041;-87
2022/11/26 02:23:33;;;;;;;4.97;2.05;;;;;;;;;;4914183;29;20036;-88
2022/11/26 02:26:08;;;;;;;6.53;2.10;;;;;;;;;;4906433;29;20572;-86
2022/11/26 02:29:12;;;;;;;4.07;1.73;;;;;;;;;;4906632;29;20067;-86
2022/11/26 02:31:46;;;;;;;6.53;1.77;;;;;;;;;;4902866;29;20506;-87
2022/11/26 02:34:24;;;;;;;5.40;2.13;;;;;;;;;;4906586;29;20130;-87
2022/11/26 02:36:57;;;;;;;4.05;1.80;;;;;;;;;;4906176;29;20054;-87
2022/11/26 02:39:25;;;;;;;5.45;2.05;;;;;;;;;;4923555;29;20036;-87
2022/11/26 02:41:56;;;;;;;4.70;2.40;;;;;;;;;;4906614;29;20044;-87
2022/11/26 02:44:29;;;;;;;5.03;2.38;;;;;;;;;;4923971;29;20058;-87
2022/11/26 02:47:01;;;;;;;4.78;2.15;;;;;;;;;;4906815;29;20108;-88
2022/11/26 02:49:28;;;;;;;5.18;2.47;;;;;;;;;;4905722;29;20044;-87
2022/11/26 02:51:58;;;;;;;6.85;2.67;;;;;;;;;;4890228;29;20054;-88
2022/11/26 02:54:26;;;;;;;6.70;2.20;;;;;;;;;;4905005;29;20048;-86
2022/11/26 02:56:53;;;;;;;5.70;2.30;;;;;;;;;;4889388;29;20044;-88
2022/11/26 02:59:19;;;;;;;2.90;1.85;;;;;;;;;;4904954;29;20044;-87
2022/11/26 03:01:54;;;;;;;4.18;2.10;;;;;;;;;;4921775;29;20131;-87
2022/11/26 03:04:25;;;;;;;4.78;1.92;;;;;;;;;;4904921;29;20122;-87
2022/11/26 03:06:52;;;;;;;4.93;2.13;;;;;;;;;;4904356;29;20454;-87
2022/11/26 03:09:17;;;;;;;3.42;2.00;;;;;;;;;;4889052;29;20040;-86
2022/11/26 03:11:43;;;;;;;4.55;2.28;;;;;;;;;;4904599;29;20096;-86
2022/11/26 03:14:09;;;;;;;4.80;2.03;;;;;;;;;;4904116;29;20050;-87
2022/11/26 03:16:34;;;;;;;6.03;2.33;;;;;;;;;;4904549;29;20059;-87
2022/11/26 03:19:00;;;;;;;3.95;2.20;;;;;;;;;;4924061;29;20176;-87
2022/11/26 03:21:26;;;;;;;4.43;2.10;;;;;;;;;;4925254;29;20382;-87
2022/11/26 03:23:51;;;;;;;3.63;1.80;;;;;;;;;;4924998;29;20621;-87
2022/11/26 03:26:17;;;;;;;3.35;1.90;;;;;;;;;;4925665;29;20477;-88
2022/11/26 03:28:42;;;;;;;5.05;2.33;;;;;;;;;;4924843;29;20043;-88
2022/11/26 03:31:07;;;;;;;5.70;2.30;;;;;;;;;;4924703;29;20043;-86
2022/11/26 03:33:33;;;;;;;4.50;1.88;;;;;;;;;;4908323;29;20553;-87
2022/11/26 03:35:58;;;;;;;5.57;2.10;;;;;;;;;;4925197;29;20032;-87
2022/11/26 03:38:24;;;;;;;4.32;2.38;;;;;;;;;;4925273;29;20506;-87
2022/11/26 03:41:01;;;;;;;3.72;1.95;;;;;;;;;;4925782;29;20036;-87
2022/11/26 03:43:27;;;;;;;4.30;2.20;;;;;;;;;;4908571;29;20039;-88
2022/11/26 03:45:52;;;;;;;5.20;2.03;;;;;;;;;;4908578;29;20046;-87
2022/11/26 03:48:18;;;;;;;6.40;2.30;;;;;;;;;;4908603;29;20054;-88
2022/11/26 03:50:43;;;;;;;6.82;2.08;;;;;;;;;;4899740;29;20039;-86
2022/11/26 03:53:09;;;;;;;3.45;2.00;;;;;;;;;;4926462;29;20032;-87
2022/11/26 03:55:34;;;;;;;3.92;2.10;;;;;;;;;;4925414;29;20040;-87
2022/11/26 03:58:00;;;;;;;3.83;2.30;;;;;;;;;;4907069;29;20519;-86
2022/11/26 04:00:25;;;;;;;4.30;2.42;;;;;;;;;;4892273;29;20490;-87
2022/11/26 04:02:51;;;;;;;5.10;2.20;;;;;;;;;;4908275;29;20075;-87
2022/11/26 04:05:16;;;;;;;3.83;1.83;;;;;;;;;;4908431;29;20047;-87
2022/11/26 04:07:42;;;;;;;6.13;2.25;;;;;;;;;;4925962;29;20054;-86
2022/11/26 04:10:08;;;;;;;3.85;1.95;;;;;;;;;;4908274;29;20044;-87
2022/11/26 04:12:34;;;;;;;3.70;2.08;;;;;;;;;;4924931;29;20068;-87
2022/11/26 04:14:59;;;;;;;4.00;2.00;;;;;;;;;;4925030;29;20071;-86
2022/11/26 04:17:25;;;;;;;3.65;2.00;;;;;;;;;;4925455;29;20040;-87
2022/11/26 04:19:50;;;;;;;4.65;2.20;;;;;;;;;;4907912;29;20031;-87
2022/11/26 04:22:16;;;;;;;4.78;2.40;;;;;;;;;;4925321;29;20123;-87
2022/11/26 04:24:41;;;;;;;6.18;2.40;;;;;;;;;;4907625;29;20028;-88
2022/11/26 04:27:07;;;;;;;3.97;2.15;;;;;;;;;;4891586;29;20402;-87
2022/11/26 04:29:32;;;;;;;3.65;2.25;;;;;;;;;;4925572;29;20063;-86
2022/11/26 04:31:58;;;;;;;3.30;2.17;;;;;;;;;;4891728;29;20069;-87
2022/11/26 04:34:23;;;;;;;4.55;2.40;;;;;;;;;;4907460;29;20091;-86
2022/11/26 04:36:49;;;;;;;5.28;2.15;;;;;;;;;;4925080;29;20044;-88
2022/11/26 04:39:14;;;;;;;5.93;2.28;;;;;;;;;;4891845;29;20032;-87
2022/11/26 04:41:41;;;;;;;4.13;2.20;;;;;;;;;;4925335;29;20071;-88
2022/11/26 04:44:07;;;;;;;4.55;2.58;;;;;;;;;;4894462;29;20494;-88
2022/11/26 04:46:32;;;;;;;4.97;2.38;;;;;;;;;;4893192;29;20043;-88
2022/11/26 04:48:58;;;;;;;6.18;2.42;;;;;;;;;;4907414;29;20032;-87
2022/11/26 04:51:23;;;;;;;3.90;2.40;;;;;;;;;;4907677;29;20035;-88
2022/11/26 04:53:49;;;;;;;4.53;2.42;;;;;;;;;;4907013;29;20092;-89
2022/11/26 04:56:14;;;;;;;5.93;2.47;;;;;;;;;;4924499;29;20032;-87
2022/11/26 04:58:40;;;;;;;4.60;2.55;;;;;;;;;;4906864;29;20071;-88
2022/11/26 05:01:05;;;;;;;3.95;2.33;;;;;;;;;;4907266;29;20044;-87
2022/11/26 05:03:31;;;;;;;4.18;2.40;;;;;;;;;;4924187;29;20101;-86
2022/11/26 05:05:56;;;;;;;4.53;2.40;;;;;;;;;;4906769;29;20032;-87
2022/11/26 05:08:21;;;;;;;6.70;2.60;;;;;;;;;;4906952;29;20549;-87
2022/11/26 05:10:52;;;;;;;3.95;2.10;;;;;;;;;;4907425;29;20517;-87
2022/11/26 05:13:18;;;;;;;4.45;2.22;;;;;;;;;;4891291;29;20036;-87
2022/11/26 05:15:43;;;;;;;5.20;2.30;;;;;;;;;;4923405;29;20031;-86
2022/11/26 05:18:09;;;;;;;5.07;2.47;;;;;;;;;;4924363;29;20246;-88
2022/11/26 05:20:34;;;;;;;4.15;2.35;;;;;;;;;;4924006;29;20043;-87
2022/11/26 05:23:00;;;;;;;4.03;2.50;;;;;;;;;;4906149;29;20063;-85
2022/11/26 05:25:25;;;;;;;5.07;2.47;;;;;;;;;;4906190;29;20068;-88
2022/11/26 05:27:50;;;;;;;4.85;2.53;;;;;;;;;;4907065;29;20034;-86
2022/11/26 05:30:16;;;;;;;4.10;2.20;;;;;;;;;;4891045;29;20415;-86
2022/11/26 05:32:41;;;;;;;5.50;2.33;;;;;;;;;;4890503;29;20099;-86
2022/11/26 05:35:07;;;;;;;4.05;2.30;;;;;;;;;;4906236;29;20390;-87
2022/11/26 05:37:33;;;;;;;5.53;2.00;;;;;;;;;;4923994;29;20084;-87
2022/11/26 05:39:58;;;;;;;4.30;2.22;;;;;;;;;;4905517;29;20044;-88
2022/11/26 05:42:24;;;;;;;3.88;1.85;;;;;;;;;;4906512;29;20036;-88
2022/11/26 05:44:49;;;;;;;4.53;2.30;;;;;;;;;;4906349;29;20485;-87
2022/11/26 05:47:15;;;;;;;5.03;2.40;;;;;;;;;;4891850;29;20186;-88
2022/11/26 05:49:40;;;;;;;4.00;2.15;;;;;;;;;;4924195;23;20048;-82
2022/11/26 05:52:06;;;;;;;4.07;2.42;;;;;;;;;;4902044;29;20096;-83
2022/11/26 05:54:31;;;;;;;5.35;2.35;;;;;;;;;;4884817;29;20077;-83
2022/11/26 05:56:57;;;;;;;5.78;3.00;;;;;;;;;;4901819;29;20052;-83
2022/11/26 05:59:23;;;;;;;4.53;2.35;;;;;;;;;;4901415;29;20045;-83
2022/11/26 06:01:48;;;;;;;4.90;2.78;;;;;;;;;;4902182;29;20041;-82
2022/11/26 06:04:14;;;;;;;4.50;2.80;;;;;;;;;;4901778;29;20044;-83
2022/11/26 06:06:39;;;;;;;7.15;3.08;;;;;;;;;;4901410;29;20051;-83
2022/11/26 06:09:05;;;;;;;4.60;2.80;;;;;;;;;;4901130;29;20359;-82
2022/11/26 06:11:30;;;;;;;6.28;3.22;;;;;;;;;;4901460;29;20037;-83
2022/11/26 06:13:55;;;;;;;7.07;3.70;;;;;;;;;;4900342;29;20044;-83
2022/11/26 06:16:21;;;;;;;6.18;3.10;;;;;;;;;;4900034;29;20041;-84
2022/11/26 06:18:46;;;;;;;7.38;4.10;;;;;;;;;;4899661;29;20052;-84
2022/11/26 06:21:12;;;;;;;5.18;2.90;;;;;;;;;;4884501;29;20125;-84
2022/11/26 06:23:38;;;;;;;7.53;3.85;;;;;;;;;;4883548;29;20064;-83
2022/11/26 06:26:08;;;;;;;6.10;3.30;;;;;;;;;;4900264;29;20064;-83
2022/11/26 06:28:34;;;;;;;6.15;3.42;;;;;;;;;;4900846;29;20036;-83
2022/11/26 06:30:59;;;;;;;7.15;2.88;;;;;;;;;;4901113;29;20044;-82
2022/11/26 06:33:25;;;;;;;4.38;2.40;;;;;;;;;;4900437;29;20525;-83
2022/11/26 06:35:50;;;;;;;6.13;3.10;;;;;;;;;;4900374;29;20044;-84
2022/11/26 06:38:16;;;;;;;6.20;3.05;;;;;;;;;;4900779;29;20039;-84
2022/11/26 06:40:41;;;;;;;6.13;3.65;;;;;;;;;;4900265;29;20040;-83
2022/11/26 06:43:07;;;;;;;5.40;3.28;;;;;;;;;;4900920;29;20748;-84
2022/11/26 06:45:33;;;;;;;6.03;3.05;;;;;;;;;;4899687;29;20044;-84
2022/11/26 06:47:58;;;;;;;5.47;3.20;;;;;;;;;;4900440;29;20040;-84
2022/11/26 06:50:24;;;;;;;5.28;2.90;;;;;;;;;;4898939;29;20037;-84
2022/11/26 06:52:53;;;;;;;5.25;3.20;;;;;;;;;;4903163;29;20032;-85
2022/11/26 06:55:18;;;;;;;6.28;3.35;;;;;;;;;;4903862;29;20119;-83
2022/11/26 06:57:47;;;;;;;7.38;3.90;;;;;;;;;;4904402;29;20087;-83
2022/11/26 07:00:13;;;;;;;8.00;3.70;;;;;;;;;;4904112;29;20044;-82
2022/11/26 07:02:38;;;;;;;5.68;3.38;;;;;;;;;;4912046;29;20145;-84
2022/11/26 07:05:04;;;;;;;5.60;3.22;;;;;;;;;;4922522;29;20075;-85
2022/11/26 07:07:29;;;;;;;8.20;3.50;;;;;;;;;;4904871;29;20039;-83
2022/11/26 07:09:55;;;;;;;6.28;3.10;;;;;;;;;;4920477;29;20043;-84
2022/11/26 07:12:20;;;;;;;4.80;3.00;;;;;;;;;;4922913;29;20103;-85
2022/11/26 07:14:45;;;;;;;5.97;3.30;;;;;;;;;;4922377;29;20036;-83
2022/11/26 07:17:11;;;;;;;5.82;3.50;;;;;;;;;;4922913;29;20086;-82
2022/11/26 07:19:36;;;;;;;8.38;3.60;;;;;;;;;;4905450;29;20103;-84
2022/11/26 07:22:02;;;;;;;9.00;4.35;;;;;;;;;;4922387;29;20058;-84
2022/11/26 07:24:27;;;;;;;5.63;3.15;;;;;;;;;;4921825;29;20036;-84
2022/11/26 07:26:53;;;;;;;7.22;3.28;;;;;;;;;;4921642;29;20032;-84
2022/11/26 07:29:18;;;;;;;6.03;3.10;;;;;;;;;;4905380;29;20421;-85
2022/11/26 07:31:44;;;;;;;6.85;3.40;;;;;;;;;;4922348;29;20044;-83
2022/11/26 07:34:09;;;;;;;6.80;3.80;;;;;;;;;;4921259;29;20078;-84
2022/11/26 07:36:36;;;;;;;6.85;4.03;;;;;;;;;;4907217;29;20032;-85
2022/11/26 07:39:02;;;;;;;5.80;3.35;;;;;;;;;;4907556;29;20050;-84
2022/11/26 07:41:28;;;;;;;7.30;3.63;;;;;;;;;;4922613;29;20401;-85
2022/11/26 07:43:54;;;;;;;8.80;4.70;;;;;;;;;;4905147;29;20067;-84
2022/11/26 07:46:22;;;;;;;6.07;3.22;;;;;;;;;;4889515;29;20083;-84
2022/11/26 07:48:49;;;;;;;7.85;3.47;;;;;;;;;;4921685;29;20060;-84
2022/11/26 07:51:23;;;;;;;7.75;3.15;;;;;;;;;;4904698;29;20092;-84
2022/11/26 07:53:49;;;;;;;6.68;3.53;;;;;;;;;;4905529;29;20461;-83
2022/11/26 07:56:16;;;;;;;6.15;3.90;;;;;;;;;;4921691;29;20036;-86
2022/11/26 07:58:41;;;;;;;5.88;3.55;;;;;;;;;;4922855;29;20032;-83
2022/11/26 08:01:13;;;;;;;6.18;3.28;;;;;;;;;;4924277;29;20055;-84
2022/11/26 08:03:40;;;;;;;6.13;3.78;;;;;;;;;;4904570;29;20409;-84
2022/11/26 08:06:10;;;;;;;6.47;2.85;;;;;;;;;;4921498;29;20035;-82
2022/11/26 08:08:37;;;;;;;6.65;3.45;;;;;;;;;;4922465;29;20044;-83
2022/11/26 08:11:04;;;;;;;7.07;3.35;;;;;;;;;;4887242;29;20062;-84
2022/11/26 08:13:29;;;;;;;6.93;3.00;;;;;;;;;;4903563;29;20024;-81
2022/11/26 08:15:55;;;;;;;4.95;2.47;;;;;;;;;;4903447;29;20042;-84
2022/11/26 08:18:20;;;;;;;6.03;2.28;;;;;;;;;;4904026;29;20478;-83
2022/11/26 08:20:56;;;;;;;6.47;2.60;;;;;;;;;;4903616;29;20036;-83
2022/11/26 08:23:23;;;;;;;5.35;2.88;;;;;;;;;;4886655;29;20044;-83
2022/11/26 08:25:49;;;;;;;6.15;3.10;;;;;;;;;;4903441;29;20033;-84
2022/11/26 08:28:14;;;;;;;7.35;3.63;;;;;;;;;;4886452;29;20037;-83
2022/11/26 08:30:40;;;;;;;6.20;3.03;;;;;;;;;;4884962;29;20044;-83
2022/11/26 08:33:05;;;;;;;4.22;2.50;;;;;;;;;;4901466;29;20047;-83
2022/11/26 08:35:33;;;;;;;4.97;2.80;;;;;;;;;;4901333;29;20486;-82
2022/11/26 08:37:58;;;;;;;6.03;2.63;;;;;;;;;;4884876;29;20036;-83
2022/11/26 08:40:24;;;;;;;5.18;2.03;;;;;;;;;;4902688;29;20046;-83
2022/11/26 08:42:49;;;;;;;4.00;2.28;;;;;;;;;;4902155;29;20033;-81
2022/11/26 08:45:15;;;;;;;5.85;2.47;;;;;;;;;;4901805;29;20075;-83
2022/11/26 08:47:40;;;;;;;4.00;2.20;;;;;;;;;;4902163;29;20032;-84
2022/11/26 08:50:06;;;;;;;6.72;2.28;;;;;;;;;;4885003;29;20398;-83
2022/11/26 08:52:32;;;;;;;7.03;2.72;;;;;;;;;;4869524;29;20037;-82
2022/11/26 08:54:57;;;;;;;4.70;2.40;;;;;;;;;;4901186;29;20409;-83
2022/11/26 08:57:23;;;;;;;4.53;2.35;;;;;;;;;;4901112;29;20047;-82
2022/11/26 08:59:50;;;;;;;5.97;2.92;;;;;;;;;;4900954;29;20032;-82
2022/11/26 09:02:16;;;;;;;3.40;1.70;;;;;;;;;;4883902;29;20044;-83
2022/11/26 09:04:41;;;;;;;4.00;1.77;;;;;;;;;;4901077;29;20173;-83
2022/11/26 09:07:07;;;;;;;6.38;2.20;;;;;;;;;;4899661;29;20047;-82
2022/11/26 09:09:32;;;;;;;5.00;1.92;;;;;;;;;;4901363;29;20039;-82
2022/11/26 09:12:00;;;;;;;5.45;2.80;;;;;;;;;;4902538;29;20039;-82
2022/11/26 09:14:27;;;;;;;6.97;3.00;;;;;;;;;;4884919;29;20064;-82
2022/11/26 09:16:55;;;;;;;6.70;2.70;;;;;;;;;;4901365;29;20047;-82
2022/11/26 09:19:20;;;;;;;6.13;3.03;;;;;;;;;;4885843;29;20059;-82
2022/11/26 09:21:46;;;;;;;6.93;3.60;;;;;;;;;;4902740;29;20040;-83
2022/11/26 09:24:13;;;;;;;7.05;2.42;;;;;;;;;;4901027;29;20043;-82
2022/11/26 09:26:38;;;;;;;7.45;2.33;;;;;;;;;;4900982;29;20040;-82
2022/11/26 09:29:04;;;;;;;6.43;3.40;;;;;;;;;;4901055;29;20494;-81
2022/11/26 09:31:30;;;;;;;11.35;4.55;;;;;;;;;;4900710;29;20041;-81
2022/11/26 09:33:57;;;;;;;5.15;2.80;;;;;;;;;;4900286;29;20040;-81
2022/11/26 09:36:22;;;;;;;3.08;1.92;;;;;;;;;;4885186;29;20040;-83
2022/11/26 09:38:48;;;;;;;3.90;2.05;;;;;;;;;;4900815;29;20036;-83
2022/11/26 09:41:32;;;;;;;2.67;1.60;;;;;;;;;;4904469;29;20036;-83
2022/11/26 09:44:33;;;;;;;2.40;1.60;;;;;;;;;;4903197;29;20051;-82
2022/11/26 09:47:01;;;;;;;4.30;1.80;;;;;;;;;;4899896;29;20053;-82
2022/11/26 09:49:32;;;;;;;4.68;2.38;;;;;;;;;;4903681;29;20036;-82
2022/11/26 09:51:58;;;;;;;4.90;2.78;;;;;;;;;;4905090;29;20040;-81
2022/11/26 09:54:27;;;;;;;4.60;2.00;;;;;;;;;;4903706;29;20040;-83
2022/11/26 09:57:17;;;;;;;4.10;1.60;;;;;;;;;;4903725;29;20041;-81
2022/11/26 09:59:45;;;;;;;2.95;1.60;;;;;;;;;;4903646;29;20051;-84
2022/11/26 10:02:12;;;;;;;4.55;1.80;;;;;;;;;;4903403;29;20053;-84
2022/11/26 10:04:39;;;;;;;4.55;1.70;;;;;;;;;;4902368;29;20115;-82
2022/11/26 10:07:11;;;;;;;2.60;1.70;;;;;;;;;;4888266;29;20410;-82
2022/11/26 10:09:39;;;;;;;3.95;2.10;;;;;;;;;;4904612;29;20036;-82
2022/11/26 10:12:43;;;;;;;2.47;1.63;;;;;;;;;;4905244;29;20068;-82
2022/11/26 10:15:15;;;;;;;2.80;1.30;;;;;;;;;;4903077;29;20041;-82
2022/11/26 10:18:08;;;;;;;3.83;1.65;;;;;;;;;;4904040;29;20036;-82
2022/11/26 10:20:57;;;;;;;3.25;1.40;;;;;;;;;;4904572;29;20036;-82
2022/11/26 10:23:38;;;;;;;4.13;1.90;;;;;;;;;;4905748;29;20057;-83
2022/11/26 10:26:14;;;;;;;4.53;2.10;;;;;;;;;;4903925;29;20047;-83
2022/11/26 10:29:12;;;;;;;3.88;1.70;;;;;;;;;;4887299;29;20498;-82
2022/11/26 10:31:41;;;;;;;6.93;2.58;;;;;;;;;;4882443;29;20044;-82
2022/11/26 10:34:15;;;;;;;6.22;1.95;;;;;;;;;;4901677;29;20425;-82
2022/11/26 10:36:44;;;;;;;5.90;2.90;;;;;;;;;;4903291;29;20559;-82
2022/11/26 10:39:14;;;;;;;5.93;3.10;;;;;;;;;;4885815;29;20037;-82
2022/11/26 10:41:39;;;;;;;7.25;2.72;;;;;;;;;;4903683;29;20056;-83
2022/11/26 10:44:28;;;;;;;6.93;2.70;;;;;;;;;;4902684;29;20024;-82
2022/11/26 10:46:53;;;;;;;8.18;3.30;;;;;;;;;;4901596;29;20513;-83
2022/11/26 10:49:23;;;;;;;6.90;2.65;;;;;;;;;;4901919;29;20046;-83
2022/11/26 10:52:00;;;;;;;7.45;2.92;;;;;;;;;;4902259;29;20085;-83
2022/11/26 10:54:33;;;;;;;4.03;2.15;;;;;;;;;;4902415;29;20036;-83
2022/11/26 10:57:08;;;;;;;4.72;2.60;;;;;;;;;;4902183;29;20064;-81
2022/11/26 10:59:43;;;;;;;5.78;2.50;;;;;;;;;;4902471;29;20036;-82
2022/11/26 11:02:30;;;;;;;3.88;1.92;;;;;;;;;;4902595;29;20096;-82
2022/11/26 11:04:57;;;;;;;4.35;1.90;;;;;;;;;;4903567;29;20494;-83
2022/11/26 11:07:32;;;;;;;4.65;2.15;;;;;;;;;;4886201;29;20041;-82
2022/11/26 11:10:04;;;;;;;3.75;2.05;;;;;;;;;;4902847;29;20092;-82
2022/11/26 11:12:30;;;;;;;5.25;2.60;;;;;;;;;;4903296;29;20052;-83
2022/11/26 11:15:11;;;;;;;6.63;2.85;;;;;;;;;;4901674;29;20067;-83
2022/11/26 11:17:39;;;;;;;2.85;1.85;;;;;;;;;;4901887;29;20557;-83
2022/11/26 11:20:14;;;;;;;5.72;2.13;;;;;;;;;;4902619;29;20052;-83
2022/11/26 11:22:40;;;;;;;3.97;1.98;;;;;;;;;;4903580;29;20040;-82
2022/11/26 11:25:21;;;;;;;4.38;2.00;;;;;;;;;;4902840;29;20123;-83
2022/11/26 11:27:47;;;;;;;5.93;2.40;;;;;;;;;;4902362;29;20044;-84
2022/11/26 11:30:28;;;;;;;4.20;2.13;;;;;;;;;;4884784;29;20028;-82
2022/11/26 11:32:58;;;;;;;3.85;2.20;;;;;;;;;;4885035;29;20105;-83
2022/11/26 11:35:29;;;;;;;5.10;2.30;;;;;;;;;;4902031;29;20127;-82
2022/11/26 11:37:58;;;;;;;3.78;2.35;;;;;;;;;;4886154;29;20092;-84
2022/11/26 11:40:27;;;;;;;5.20;2.25;;;;;;;;;;4891040;29;20041;-83
2022/11/26 11:43:02;;;;;;;4.68;2.70;;;;;;;;;;4891534;29;20075;-82
2022/11/26 11:45:42;;;;;;;3.55;2.47;;;;;;;;;;4889012;29;20075;-85
2022/11/26 11:48:30;;;;;;;7.13;4.20;;;;;;;;;;4907376;29;20036;-82
2022/11/26 11:51:01;;;;;;;7.93;4.57;;;;;;;;;;4897251;29;20059;-84
2022/11/26 11:53:27;;;;;;;5.45;3.17;;;;;;;;;;4887644;29;20036;-83
2022/11/26 11:56:25;;;;;;;5.70;3.20;;;;;;;;;;4887783;29;20063;-84
2022/11/26 11:59:36;;;;;;;4.25;2.50;;;;;;;;;;4904433;29;20052;-84
2022/11/26 12:02:36;;;;;;;11.20;6.28;;;;;;;;;;4886216;29;20056;-84
2022/11/26 12:05:29;;;;;;;4.47;2.60;;;;;;;;;;4904153;29;20581;-84
2022/11/26 12:08:24;;;;;;;9.63;5.85;;;;;;;;;;4904955;29;20047;-86
2022/11/26 12:11:16;;;;;;;8.40;4.03;;;;;;;;;;4904311;29;20047;-87
2022/11/26 12:13:53;;;;;;;7.05;3.72;;;;;;;;;;4904217;29;20028;-87
2022/11/26 12:16:22;;;;;;;5.82;2.78;;;;;;;;;;4887052;29;20028;-86
2022/11/26 12:18:59;;;;;;;2.58;1.85;;;;;;;;;;4904767;29;20096;-86
2022/11/26 12:21:50;;;;;;;2.83;1.70;;;;;;;;;;4887703;29;20585;-87
2022/11/26 12:24:36;;;;;;;3.13;2.05;;;;;;;;;;4903236;29;20045;-88
2022/11/26 12:27:09;;;;;;;3.10;1.80;;;;;;;;;;4902236;29;20465;-87
2022/11/26 12:29:52;;;;;;;3.30;1.60;;;;;;;;;;4904354;29;20486;-86
2022/11/26 12:32:30;;;;;;;4.18;2.08;;;;;;;;;;4903574;29;20148;-87
2022/11/26 12:34:59;;;;;;;4.50;1.88;;;;;;;;;;4902968;29;20037;-86
2022/11/26 12:37:37;;;;;;;4.45;2.10;;;;;;;;;;4902518;29;20052;-87
2022/11/26 12:40:07;;;;;;;3.95;1.70;;;;;;;;;;4903977;29;20120;-86
2022/11/26 12:42:56;;;;;;;3.08;1.73;;;;;;;;;;4886016;29;20132;-87
2022/11/26 12:45:46;;;;;;;2.80;1.60;;;;;;;;;;4902779;29;20059;-86
2022/11/26 12:48:41;;;;;;;11.93;7.38;;;;;;;;;;4886895;29;20139;-87
2022/11/26 12:51:37;;;;;;;6.97;3.88;;;;;;;;;;4898230;29;20079;-87
2022/11/26 12:54:32;;;;;;;7.57;3.72;;;;;;;;;;4902714;29;20046;-87
2022/11/26 12:57:05;;;;;;;6.45;2.90;;;;;;;;;;4886388;29;20044;-87
2022/11/26 12:59:34;;;;;;;5.10;3.08;;;;;;;;;;4886189;29;20032;-87
2022/11/26 13:02:14;;;;;;;6.00;3.45;;;;;;;;;;4903407;29;20557;-86
2022/11/26 13:04:39;;;;;;;6.43;3.65;;;;;;;;;;4903131;29;20112;-86
2022/11/26 13:07:20;;;;;;;6.45;4.07;;;;;;;;;;4903622;29;20502;-87
2022/11/26 13:09:45;;;;;;;6.45;3.72;;;;;;;;;;4885962;29;20044;-86
2022/11/26 13:12:38;;;;;;;6.43;3.33;;;;;;;;;;4903160;29;20145;-87
2022/11/26 13:15:30;;;;;;;5.43;3.17;;;;;;;;;;4902463;29;20043;-87
2022/11/26 13:17:58;;;;;;;4.65;2.78;;;;;;;;;;4900109;29;20081;-86
2022/11/26 13:20:44;;;;;;;5.70;3.20;;;;;;;;;;4920779;29;20032;-86
2022/11/26 13:23:21;;;;;;;4.95;2.75;;;;;;;;;;4922177;29;20074;-86
2022/11/26 13:26:06;;;;;;;4.82;2.22;;;;;;;;;;4920856;29;20036;-86
2022/11/26 13:28:54;;;;;;;4.63;2.20;;;;;;;;;;4920607;29;20036;-86
2022/11/26 13:31:26;;;;;;;5.53;3.30;;;;;;;;;;4867060;29;20083;-86
2022/11/26 13:34:17;;;;;;;4.50;2.30;;;;;;;;;;4882166;29;20066;-86
2022/11/26 13:37:04;;;;;;;5.00;2.58;;;;;;;;;;4884125;29;20037;-87
2022/11/26 13:39:48;;;;;;;4.53;2.80;;;;;;;;;;4889408;29;20068;-87
2022/11/26 13:42:13;;;;;;;;;;;;;;;;;;4902908;29;20044;-84
2022/11/26 13:45:24;;;;;;;3.33;2.10;;;;;;;;;;4901908;29;19963;-86
2022/11/26 13:48:05;;;;;;;4.30;2.50;;;;;;;;;;4828238;29;20044;-87
2022/11/26 13:50:43;;;;;;;6.00;2.50;;;;;;;;;;4843665;29;20042;-87
2022/11/26 13:53:23;;;;;;;4.47;2.58;;;;;;;;;;4884275;29;20056;-87
2022/11/26 13:55:57;;;;;;;4.82;2.90;;;;;;;;;;4884454;29;20509;-87
2022/11/26 13:58:31;;;;;;;5.05;2.72;;;;;;;;;;4901967;29;20036;-86
2022/11/26 14:01:16;;;;;;;;;;;;;;;;;;4901865;29;20052;-86
2022/11/26 14:03:44;;;;;;;5.60;2.92;;;;;;;;;;4903834;29;19962;-87
2022/11/26 14:06:10;;;;;;;4.55;2.50;;;;;;;;;;4902000;29;20036;-86
2022/11/26 14:08:43;;;;;;;5.80;3.17;;;;;;;;;;4903041;29;20044;-86
2022/11/26 14:11:10;;;;;;;4.50;2.75;;;;;;;;;;4903212;29;20037;-87
2022/11/26 14:13:36;;;;;;;6.40;3.45;;;;;;;;;;4902769;29;20044;-86
2022/11/26 14:16:02;;;;;;;3.00;1.90;;;;;;;;;;4902976;29;20108;-85
2022/11/26 14:18:50;;;;;;;5.68;3.50;;;;;;;;;;4886394;29;20072;-88
2022/11/26 14:21:18;;;;;;;15.05;9.60;;;;;;;;;;4887641;29;20040;-88
2022/11/26 14:24:11;;;;;;;6.32;4.25;;;;;;;;;;4903483;29;20033;-88
2022/11/26 14:26:37;;;;;;;4.70;3.30;;;;;;;;;;4885378;29;20043;-87
2022/11/26 14:29:12;;;;;;;4.35;2.63;;;;;;;;;;4903225;29;20040;-87
2022/11/26 14:31:57;;;;;;;9.65;4.03;;;;;;;;;;4870627;29;20032;-87
2022/11/26 14:34:41;;;;;;;9.23;5.03;;;;;;;;;;4903060;29;20079;-88
2022/11/26 14:37:15;;;;;;;8.45;4.65;;;;;;;;;;4886248;29;20044;-87
2022/11/26 14:39:40;;;;;;;6.90;3.85;;;;;;;;;;4903240;29;20088;-85
2022/11/26 14:42:14;;;;;;;27.23;13.50;;;;;;;;;;4919962;29;20060;-86
2022/11/26 14:44:39;;;;;;;29.30;16.90;;;;;;;;;;4920678;29;20390;-87
2022/11/26 14:47:15;;;;;;;50.75;27.77;;;;;;;;;;4920844;29;20047;-85
2022/11/26 14:49:47;;;;;;;22.52;11.63;;;;;;;;;;4903213;29;20040;-87
2022/11/26 14:52:25;;;;;;;16.95;8.75;;;;;;;;;;4922031;29;20119;-86
2022/11/26 14:54:53;;;;;;;31.25;15.90;;;;;;;;;;4906213;29;20409;-87
2022/11/26 14:57:26;;;;;;;12.60;6.40;;;;;;;;;;4923124;29;20091;-87
2022/11/26 15:00:18;;;;;;;11.82;6.05;;;;;;;;;;4905165;29;20103;-87
2022/11/26 15:02:47;;;;;;;9.30;4.85;;;;;;;;;;4921683;29;20059;-86
2022/11/26 15:05:19;;;;;;;6.80;2.50;;;;;;;;;;4920418;29;20115;-87